sensor_id;sensor_type;location;lat;lon;timestamp;P1;durP1;ratioP1;P2;durP2;ratioP2
73321;SDS011;61549;37.044;22.128;2022-09-09T00:01:49;2.65;;;2.42;;
73321;SDS011;61549;37.044;22.128;2022-09-09T00:10:08;2.55;;;2.35;;
73321;SDS011;61549;37.044;22.128;2022-09-09T00:13:01;3.85;;;2.50;;
73321;SDS011;61549;37.044;22.128;2022-09-09T00:15:49;3.03;;;2.47;;
73321;SDS011;61549;37.044;22.128;2022-09-09T00:18:32;2.40;;;2.20;;
73321;SDS011;61549;37.044;22.128;2022-09-09T00:21:17;3.65;;;2.30;;
73321;SDS011;61549;37.044;22.128;2022-09-09T00:31:27;2.50;;;2.25;;
73321;SDS011;61549;37.044;22.128;2022-09-09T00:33:57;2.97;;;2.40;;
73321;SDS011;61549;37.044;22.128;2022-09-09T00:36:52;4.82;;;2.70;;
73321;SDS011;61549;37.044;22.128;2022-09-09T00:39:25;2.78;;;2.17;;
73321;SDS011;61549;37.044;22.128;2022-09-09T00:42:14;2.40;;;2.20;;
73321;SDS011;61549;37.044;22.128;2022-09-09T00:55:47;3.45;;;2.47;;
73321;SDS011;61549;37.044;22.128;2022-09-09T00:58:19;2.70;;;2.50;;
73321;SDS011;61549;37.044;22.128;2022-09-09T01:00:50;2.95;;;2.40;;
73321;SDS011;61549;37.044;22.128;2022-09-09T01:03:33;2.97;;;2.60;;
73321;SDS011;61549;37.044;22.128;2022-09-09T01:06:13;3.08;;;2.38;;
73321;SDS011;61549;37.044;22.128;2022-09-09T01:09:05;2.70;;;2.42;;
73321;SDS011;61549;37.044;22.128;2022-09-09T01:17:01;3.30;;;2.33;;
73321;SDS011;61549;37.044;22.128;2022-09-09T01:19:47;4.53;;;2.67;;
73321;SDS011;61549;37.044;22.128;2022-09-09T01:28:13;4.05;;;2.50;;
73321;SDS011;61549;37.044;22.128;2022-09-09T01:30:44;4.00;;;2.40;;
73321;SDS011;61549;37.044;22.128;2022-09-09T01:33:14;3.78;;;2.40;;
73321;SDS011;61549;37.044;22.128;2022-09-09T01:35:43;2.83;;;2.35;;
73321;SDS011;61549;37.044;22.128;2022-09-09T01:38:22;2.40;;;2.20;;
73321;SDS011;61549;37.044;22.128;2022-09-09T01:40:48;2.58;;;2.38;;
73321;SDS011;61549;37.044;22.128;2022-09-09T01:43:18;3.10;;;2.33;;
73321;SDS011;61549;37.044;22.128;2022-09-09T01:45:48;4.50;;;2.45;;
73321;SDS011;61549;37.044;22.128;2022-09-09T01:48:17;2.75;;;2.22;;
73321;SDS011;61549;37.044;22.128;2022-09-09T01:50:44;2.40;;;2.20;;
73321;SDS011;61549;37.044;22.128;2022-09-09T01:53:10;2.35;;;2.00;;
73321;SDS011;61549;37.044;22.128;2022-09-09T01:55:40;3.20;;;2.55;;
73321;SDS011;61549;37.044;22.128;2022-09-09T01:58:13;2.83;;;2.13;;
73321;SDS011;61549;37.044;22.128;2022-09-09T02:03:39;3.22;;;2.28;;
73321;SDS011;61549;37.044;22.128;2022-09-09T02:08:53;2.88;;;2.30;;
73321;SDS011;61549;37.044;22.128;2022-09-09T02:11:27;3.30;;;2.20;;
73321;SDS011;61549;37.044;22.128;2022-09-09T02:13:56;2.47;;;2.15;;
73321;SDS011;61549;37.044;22.128;2022-09-09T02:16:33;2.85;;;2.55;;
73321;SDS011;61549;37.044;22.128;2022-09-09T02:19:11;2.60;;;2.40;;
73321;SDS011;61549;37.044;22.128;2022-09-09T02:21:50;3.22;;;2.40;;
73321;SDS011;61549;37.044;22.128;2022-09-09T02:24:18;3.20;;;2.25;;
73321;SDS011;61549;37.044;22.128;2022-09-09T02:26:45;3.10;;;2.30;;
73321;SDS011;61549;37.044;22.128;2022-09-09T02:29:28;3.67;;;2.40;;
73321;SDS011;61549;37.044;22.128;2022-09-09T02:32:00;4.57;;;2.65;;
73321;SDS011;61549;37.044;22.128;2022-09-09T02:34:29;2.95;;;2.20;;
73321;SDS011;61549;37.044;22.128;2022-09-09T02:36:58;2.95;;;2.40;;
73321;SDS011;61549;37.044;22.128;2022-09-09T02:39:26;3.47;;;2.42;;
73321;SDS011;61549;37.044;22.128;2022-09-09T02:41:52;4.93;;;2.50;;
73321;SDS011;61549;37.044;22.128;2022-09-09T02:44:18;3.00;;;2.42;;
73321;SDS011;61549;37.044;22.128;2022-09-09T02:46:55;3.40;;;2.42;;
73321;SDS011;61549;37.044;22.128;2022-09-09T02:49:35;2.50;;;2.30;;
73321;SDS011;61549;37.044;22.128;2022-09-09T02:52:12;2.95;;;2.45;;
73321;SDS011;61549;37.044;22.128;2022-09-09T02:54:42;2.78;;;2.10;;
73321;SDS011;61549;37.044;22.128;2022-09-09T02:59:37;3.55;;;2.50;;
73321;SDS011;61549;37.044;22.128;2022-09-09T03:02:04;2.90;;;2.45;;
73321;SDS011;61549;37.044;22.128;2022-09-09T03:04:30;4.32;;;2.50;;
73321;SDS011;61549;37.044;22.128;2022-09-09T03:06:56;2.80;;;2.42;;
73321;SDS011;61549;37.044;22.128;2022-09-09T03:09:23;3.67;;;2.60;;
73321;SDS011;61549;37.044;22.128;2022-09-09T03:11:51;3.25;;;2.72;;
73321;SDS011;61549;37.044;22.128;2022-09-09T03:14:17;3.08;;;2.78;;
73321;SDS011;61549;37.044;22.128;2022-09-09T03:16:49;3.55;;;3.08;;
73321;SDS011;61549;37.044;22.128;2022-09-09T03:19:15;4.55;;;3.45;;
73321;SDS011;61549;37.044;22.128;2022-09-09T03:21:41;4.40;;;3.20;;
73321;SDS011;61549;37.044;22.128;2022-09-09T03:24:06;4.63;;;3.20;;
73321;SDS011;61549;37.044;22.128;2022-09-09T03:26:33;5.65;;;3.15;;
73321;SDS011;61549;37.044;22.128;2022-09-09T03:28:59;3.20;;;2.70;;
73321;SDS011;61549;37.044;22.128;2022-09-09T03:31:26;3.38;;;2.78;;
73321;SDS011;61549;37.044;22.128;2022-09-09T03:33:55;5.15;;;2.88;;
73321;SDS011;61549;37.044;22.128;2022-09-09T03:36:23;4.63;;;2.97;;
73321;SDS011;61549;37.044;22.128;2022-09-09T03:38:51;3.30;;;2.90;;
73321;SDS011;61549;37.044;22.128;2022-09-09T03:41:17;6.32;;;2.70;;
73321;SDS011;61549;37.044;22.128;2022-09-09T03:43:43;5.93;;;2.55;;
73321;SDS011;61549;37.044;22.128;2022-09-09T03:46:09;3.13;;;2.30;;
73321;SDS011;61549;37.044;22.128;2022-09-09T03:48:35;3.47;;;2.60;;
73321;SDS011;61549;37.044;22.128;2022-09-09T03:51:01;4.82;;;2.53;;
73321;SDS011;61549;37.044;22.128;2022-09-09T03:53:28;4.25;;;2.63;;
73321;SDS011;61549;37.044;22.128;2022-09-09T03:55:55;6.03;;;2.95;;
73321;SDS011;61549;37.044;22.128;2022-09-09T03:58:24;3.83;;;2.70;;
73321;SDS011;61549;37.044;22.128;2022-09-09T04:01:01;3.60;;;2.40;;
73321;SDS011;61549;37.044;22.128;2022-09-09T04:03:29;2.92;;;2.40;;
73321;SDS011;61549;37.044;22.128;2022-09-09T04:05:56;4.15;;;2.90;;
73321;SDS011;61549;37.044;22.128;2022-09-09T04:08:23;3.00;;;2.33;;
73321;SDS011;61549;37.044;22.128;2022-09-09T04:10:50;2.70;;;2.50;;
73321;SDS011;61549;37.044;22.128;2022-09-09T04:13:17;4.18;;;2.55;;
73321;SDS011;61549;37.044;22.128;2022-09-09T04:15:44;3.92;;;2.47;;
73321;SDS011;61549;37.044;22.128;2022-09-09T04:18:20;3.00;;;2.50;;
73321;SDS011;61549;37.044;22.128;2022-09-09T04:20:47;4.63;;;2.60;;
73321;SDS011;61549;37.044;22.128;2022-09-09T04:23:15;4.45;;;2.28;;
73321;SDS011;61549;37.044;22.128;2022-09-09T04:25:45;3.67;;;2.38;;
73321;SDS011;61549;37.044;22.128;2022-09-09T04:28:15;4.45;;;2.35;;
73321;SDS011;61549;37.044;22.128;2022-09-09T04:30:42;4.75;;;2.35;;
73321;SDS011;61549;37.044;22.128;2022-09-09T04:33:09;3.45;;;2.22;;
73321;SDS011;61549;37.044;22.128;2022-09-09T04:35:35;5.40;;;2.20;;
73321;SDS011;61549;37.044;22.128;2022-09-09T04:38:02;3.40;;;2.10;;
73321;SDS011;61549;37.044;22.128;2022-09-09T04:40:29;3.10;;;2.22;;
73321;SDS011;61549;37.044;22.128;2022-09-09T04:43:00;3.78;;;2.45;;
73321;SDS011;61549;37.044;22.128;2022-09-09T04:45:30;3.60;;;2.03;;
73321;SDS011;61549;37.044;22.128;2022-09-09T04:47:57;6.10;;;2.40;;
73321;SDS011;61549;37.044;22.128;2022-09-09T04:50:23;4.25;;;2.80;;
73321;SDS011;61549;37.044;22.128;2022-09-09T04:52:50;3.45;;;2.28;;
73321;SDS011;61549;37.044;22.128;2022-09-09T04:55:15;3.38;;;2.40;;
73321;SDS011;61549;37.044;22.128;2022-09-09T04:57:41;6.03;;;2.90;;
73321;SDS011;61549;37.044;22.128;2022-09-09T05:00:08;4.05;;;2.88;;
73321;SDS011;61549;37.044;22.128;2022-09-09T05:02:38;4.25;;;2.85;;
73321;SDS011;61549;37.044;22.128;2022-09-09T05:05:05;4.43;;;2.58;;
73321;SDS011;61549;37.044;22.128;2022-09-09T05:07:31;4.28;;;2.92;;
73321;SDS011;61549;37.044;22.128;2022-09-09T05:09:57;5.20;;;3.00;;
73321;SDS011;61549;37.044;22.128;2022-09-09T05:12:24;4.43;;;2.83;;
73321;SDS011;61549;37.044;22.128;2022-09-09T05:14:51;4.13;;;2.90;;
73321;SDS011;61549;37.044;22.128;2022-09-09T05:17:17;5.18;;;3.20;;
73321;SDS011;61549;37.044;22.128;2022-09-09T05:19:43;3.88;;;3.33;;
73321;SDS011;61549;37.044;22.128;2022-09-09T05:22:09;5.20;;;3.17;;
73321;SDS011;61549;37.044;22.128;2022-09-09T05:24:37;5.18;;;3.38;;
73321;SDS011;61549;37.044;22.128;2022-09-09T05:27:03;7.78;;;3.28;;
73321;SDS011;61549;37.044;22.128;2022-09-09T05:29:31;7.57;;;3.20;;
73321;SDS011;61549;37.044;22.128;2022-09-09T05:31:58;5.35;;;3.15;;
73321;SDS011;61549;37.044;22.128;2022-09-09T05:34:24;4.35;;;2.90;;
73321;SDS011;61549;37.044;22.128;2022-09-09T05:36:50;6.88;;;3.33;;
73321;SDS011;61549;37.044;22.128;2022-09-09T05:39:17;5.82;;;3.10;;
73321;SDS011;61549;37.044;22.128;2022-09-09T05:41:43;4.97;;;2.90;;
73321;SDS011;61549;37.044;22.128;2022-09-09T05:44:09;7.40;;;2.88;;
73321;SDS011;61549;37.044;22.128;2022-09-09T05:46:35;6.35;;;3.00;;
73321;SDS011;61549;37.044;22.128;2022-09-09T05:49:01;4.20;;;2.97;;
73321;SDS011;61549;37.044;22.128;2022-09-09T05:51:28;3.08;;;2.58;;
73321;SDS011;61549;37.044;22.128;2022-09-09T05:53:57;4.78;;;2.40;;
73321;SDS011;61549;37.044;22.128;2022-09-09T05:56:26;3.28;;;2.40;;
73321;SDS011;61549;37.044;22.128;2022-09-09T05:58:53;2.80;;;2.50;;
73321;SDS011;61549;37.044;22.128;2022-09-09T06:01:24;3.67;;;2.50;;
73321;SDS011;61549;37.044;22.128;2022-09-09T06:03:52;2.85;;;2.28;;
73321;SDS011;61549;37.044;22.128;2022-09-09T06:06:19;2.90;;;2.30;;
73321;SDS011;61549;37.044;22.128;2022-09-09T06:08:53;3.25;;;2.60;;
73321;SDS011;61549;37.044;22.128;2022-09-09T06:11:23;4.03;;;3.00;;
73321;SDS011;61549;37.044;22.128;2022-09-09T06:13:56;3.17;;;2.88;;
73321;SDS011;61549;37.044;22.128;2022-09-09T06:16:23;6.07;;;3.22;;
73321;SDS011;61549;37.044;22.128;2022-09-09T06:18:51;4.78;;;3.33;;
73321;SDS011;61549;37.044;22.128;2022-09-09T06:21:29;4.05;;;3.20;;
73321;SDS011;61549;37.044;22.128;2022-09-09T06:23:59;3.40;;;2.97;;
73321;SDS011;61549;37.044;22.128;2022-09-09T06:26:26;3.20;;;2.90;;
73321;SDS011;61549;37.044;22.128;2022-09-09T06:28:55;4.43;;;2.90;;
73321;SDS011;61549;37.044;22.128;2022-09-09T06:31:23;3.42;;;2.95;;
73321;SDS011;61549;37.044;22.128;2022-09-09T06:33:52;5.88;;;2.90;;
73321;SDS011;61549;37.044;22.128;2022-09-09T06:36:24;3.30;;;3.00;;
73321;SDS011;61549;37.044;22.128;2022-09-09T06:38:51;3.38;;;2.97;;
73321;SDS011;61549;37.044;22.128;2022-09-09T06:41:19;4.15;;;2.85;;
73321;SDS011;61549;37.044;22.128;2022-09-09T06:43:47;4.20;;;3.10;;
73321;SDS011;61549;37.044;22.128;2022-09-09T06:46:14;3.22;;;2.92;;
73321;SDS011;61549;37.044;22.128;2022-09-09T06:48:42;3.10;;;2.80;;
73321;SDS011;61549;37.044;22.128;2022-09-09T06:51:16;3.17;;;2.88;;
73321;SDS011;61549;37.044;22.128;2022-09-09T06:53:46;3.13;;;2.80;;
73321;SDS011;61549;37.044;22.128;2022-09-09T06:58:42;3.30;;;3.00;;
73321;SDS011;61549;37.044;22.128;2022-09-09T07:01:10;4.32;;;3.72;;
73321;SDS011;61549;37.044;22.128;2022-09-09T07:03:37;5.07;;;3.53;;
73321;SDS011;61549;37.044;22.128;2022-09-09T07:06:08;3.80;;;3.40;;
73321;SDS011;61549;37.044;22.128;2022-09-09T07:08:39;4.15;;;3.45;;
73321;SDS011;61549;37.044;22.128;2022-09-09T07:11:05;3.65;;;3.33;;
73321;SDS011;61549;37.044;22.128;2022-09-09T07:13:33;3.75;;;3.40;;
73321;SDS011;61549;37.044;22.128;2022-09-09T07:16:05;4.43;;;3.35;;
73321;SDS011;61549;37.044;22.128;2022-09-09T07:18:37;5.53;;;3.50;;
73321;SDS011;61549;37.044;22.128;2022-09-09T07:21:04;4.28;;;3.25;;
73321;SDS011;61549;37.044;22.128;2022-09-09T07:23:31;3.80;;;3.13;;
73321;SDS011;61549;37.044;22.128;2022-09-09T07:25:58;3.55;;;3.15;;
73321;SDS011;61549;37.044;22.128;2022-09-09T07:28:24;3.75;;;3.30;;
73321;SDS011;61549;37.044;22.128;2022-09-09T07:30:58;4.55;;;3.20;;
73321;SDS011;61549;37.044;22.128;2022-09-09T07:33:29;5.35;;;3.28;;
73321;SDS011;61549;37.044;22.128;2022-09-09T07:36:08;3.30;;;3.00;;
73321;SDS011;61549;37.044;22.128;2022-09-09T07:38:38;3.70;;;3.40;;
73321;SDS011;61549;37.044;22.128;2022-09-09T07:41:08;4.03;;;3.40;;
73321;SDS011;61549;37.044;22.128;2022-09-09T07:43:39;3.80;;;3.47;;
73321;SDS011;61549;37.044;22.128;2022-09-09T07:46:06;4.25;;;3.45;;
73321;SDS011;61549;37.044;22.128;2022-09-09T07:48:32;3.97;;;3.30;;
73321;SDS011;61549;37.044;22.128;2022-09-09T07:51:09;5.97;;;3.60;;
73321;SDS011;61549;37.044;22.128;2022-09-09T07:56:15;4.95;;;3.65;;
73321;SDS011;61549;37.044;22.128;2022-09-09T07:58:44;4.20;;;3.80;;
73321;SDS011;61549;37.044;22.128;2022-09-09T08:01:12;4.97;;;3.55;;
73321;SDS011;61549;37.044;22.128;2022-09-09T08:03:38;5.25;;;3.80;;
73321;SDS011;61549;37.044;22.128;2022-09-09T08:06:06;4.28;;;3.65;;
73321;SDS011;61549;37.044;22.128;2022-09-09T08:08:36;4.20;;;3.80;;
73321;SDS011;61549;37.044;22.128;2022-09-09T08:11:08;4.88;;;3.63;;
73321;SDS011;61549;37.044;22.128;2022-09-09T08:13:36;6.75;;;3.85;;
73321;SDS011;61549;37.044;22.128;2022-09-09T08:16:06;3.92;;;3.58;;
73321;SDS011;61549;37.044;22.128;2022-09-09T08:18:34;4.25;;;3.85;;
73321;SDS011;61549;37.044;22.128;2022-09-09T08:21:10;4.50;;;3.88;;
73321;SDS011;61549;37.044;22.128;2022-09-09T08:23:42;7.72;;;4.32;;
73321;SDS011;61549;37.044;22.128;2022-09-09T08:28:40;4.35;;;3.95;;
73321;SDS011;61549;37.044;22.128;2022-09-09T08:31:08;4.18;;;3.63;;
73321;SDS011;61549;37.044;22.128;2022-09-09T08:33:35;4.43;;;3.90;;
73321;SDS011;61549;37.044;22.128;2022-09-09T08:36:03;4.30;;;3.90;;
73321;SDS011;61549;37.044;22.128;2022-09-09T08:38:30;5.50;;;3.38;;
73321;SDS011;61549;37.044;22.128;2022-09-09T08:40:58;4.93;;;3.53;;
73321;SDS011;61549;37.044;22.128;2022-09-09T08:43:41;3.75;;;2.85;;
73321;SDS011;61549;37.044;22.128;2022-09-09T08:46:14;4.32;;;2.90;;
73321;SDS011;61549;37.044;22.128;2022-09-09T08:48:56;5.13;;;3.47;;
73321;SDS011;61549;37.044;22.128;2022-09-09T08:51:39;4.22;;;3.50;;
73321;SDS011;61549;37.044;22.128;2022-09-09T08:54:07;5.10;;;3.40;;
73321;SDS011;61549;37.044;22.128;2022-09-09T08:56:35;4.00;;;3.30;;
73321;SDS011;61549;37.044;22.128;2022-09-09T08:59:01;5.97;;;3.50;;
73321;SDS011;61549;37.044;22.128;2022-09-09T09:07:28;5.13;;;3.22;;
73321;SDS011;61549;37.044;22.128;2022-09-09T09:13:13;3.75;;;3.13;;
73321;SDS011;61549;37.044;22.128;2022-09-09T09:15:43;5.03;;;3.50;;
73321;SDS011;61549;37.044;22.128;2022-09-09T09:18:12;3.78;;;3.30;;
73321;SDS011;61549;37.044;22.128;2022-09-09T09:20:45;5.32;;;3.20;;
73321;SDS011;61549;37.044;22.128;2022-09-09T09:23:34;4.20;;;3.15;;
73321;SDS011;61549;37.044;22.128;2022-09-09T09:26:09;4.72;;;2.90;;
73321;SDS011;61549;37.044;22.128;2022-09-09T09:28:38;3.20;;;2.90;;
73321;SDS011;61549;37.044;22.128;2022-09-09T09:31:09;3.63;;;3.30;;
73321;SDS011;61549;37.044;22.128;2022-09-09T09:33:38;4.03;;;3.17;;
73321;SDS011;61549;37.044;22.128;2022-09-09T09:36:11;3.95;;;3.55;;
73321;SDS011;61549;37.044;22.128;2022-09-09T09:38:38;4.22;;;3.67;;
73321;SDS011;61549;37.044;22.128;2022-09-09T09:41:05;4.05;;;3.40;;
73321;SDS011;61549;37.044;22.128;2022-09-09T09:43:31;3.83;;;3.20;;
73321;SDS011;61549;37.044;22.128;2022-09-09T09:45:59;3.92;;;3.53;;
73321;SDS011;61549;37.044;22.128;2022-09-09T09:48:26;3.70;;;3.40;;
73321;SDS011;61549;37.044;22.128;2022-09-09T09:50:58;4.00;;;3.60;;
73321;SDS011;61549;37.044;22.128;2022-09-09T09:53:27;3.97;;;3.20;;
73321;SDS011;61549;37.044;22.128;2022-09-09T09:56:09;4.70;;;3.42;;
73321;SDS011;61549;37.044;22.128;2022-09-09T10:01:24;3.97;;;3.58;;
73321;SDS011;61549;37.044;22.128;2022-09-09T10:03:58;4.00;;;3.40;;
73321;SDS011;61549;37.044;22.128;2022-09-09T10:06:35;5.45;;;3.80;;
73321;SDS011;61549;37.044;22.128;2022-09-09T10:09:03;4.78;;;4.00;;
73321;SDS011;61549;37.044;22.128;2022-09-09T10:12:01;4.30;;;3.55;;
73321;SDS011;61549;37.044;22.128;2022-09-09T10:22:36;4.23;;;3.50;;
73321;SDS011;61549;37.044;22.128;2022-09-09T10:33:32;3.85;;;3.55;;
73321;SDS011;61549;37.044;22.128;2022-09-09T10:42:05;4.10;;;3.42;;
73321;SDS011;61549;37.044;22.128;2022-09-09T10:47:21;4.93;;;4.03;;
73321;SDS011;61549;37.044;22.128;2022-09-09T10:55:51;4.65;;;4.20;;
73321;SDS011;61549;37.044;22.128;2022-09-09T10:58:29;4.15;;;3.85;;
73321;SDS011;61549;37.044;22.128;2022-09-09T11:01:22;5.07;;;3.97;;
73321;SDS011;61549;37.044;22.128;2022-09-09T11:03:56;4.57;;;3.92;;
73321;SDS011;61549;37.044;22.128;2022-09-09T11:06:30;6.30;;;3.97;;
73321;SDS011;61549;37.044;22.128;2022-09-09T11:09:01;4.15;;;3.55;;
73321;SDS011;61549;37.044;22.128;2022-09-09T11:14:03;5.15;;;3.50;;
73321;SDS011;61549;37.044;22.128;2022-09-09T11:16:58;4.20;;;3.47;;
73321;SDS011;61549;37.044;22.128;2022-09-09T11:22:00;5.60;;;3.70;;
73321;SDS011;61549;37.044;22.128;2022-09-09T11:29:49;6.60;;;3.50;;
73321;SDS011;61549;37.044;22.128;2022-09-09T11:38:31;4.45;;;3.80;;
73321;SDS011;61549;37.044;22.128;2022-09-09T11:41:06;6.00;;;3.57;;
73321;SDS011;61549;37.044;22.128;2022-09-09T11:43:45;5.25;;;3.10;;
73321;SDS011;61549;37.044;22.128;2022-09-09T11:46:22;3.40;;;2.90;;
73321;SDS011;61549;37.044;22.128;2022-09-09T11:49:04;3.42;;;3.13;;
73321;SDS011;61549;37.044;22.128;2022-09-09T11:51:33;5.63;;;3.58;;
73321;SDS011;61549;37.044;22.128;2022-09-09T11:54:01;3.72;;;3.28;;
73321;SDS011;61549;37.044;22.128;2022-09-09T11:56:47;3.80;;;3.20;;
73321;SDS011;61549;37.044;22.128;2022-09-09T11:59:19;3.55;;;2.95;;
73321;SDS011;61549;37.044;22.128;2022-09-09T12:01:59;6.47;;;3.20;;
73321;SDS011;61549;37.044;22.128;2022-09-09T12:06:56;3.60;;;3.13;;
73321;SDS011;61549;37.044;22.128;2022-09-09T12:12:07;3.45;;;3.15;;
73321;SDS011;61549;37.044;22.128;2022-09-09T12:14:44;4.32;;;3.47;;
73321;SDS011;61549;37.044;22.128;2022-09-09T12:17:21;5.93;;;3.40;;
73321;SDS011;61549;37.044;22.128;2022-09-09T12:22:43;4.15;;;3.20;;
73321;SDS011;61549;37.044;22.128;2022-09-09T12:33:23;4.50;;;3.10;;
73321;SDS011;61549;37.044;22.128;2022-09-09T12:35:54;4.47;;;3.30;;
73321;SDS011;61549;37.044;22.128;2022-09-09T12:38:35;5.80;;;3.17;;
73321;SDS011;61549;37.044;22.128;2022-09-09T12:41:03;5.78;;;3.20;;
73321;SDS011;61549;37.044;22.128;2022-09-09T12:43:30;6.88;;;3.38;;
73321;SDS011;61549;37.044;22.128;2022-09-09T12:46:00;3.92;;;3.00;;
73321;SDS011;61549;37.044;22.128;2022-09-09T12:51:05;3.97;;;3.25;;
73321;SDS011;61549;37.044;22.128;2022-09-09T12:53:42;3.78;;;3.10;;
73321;SDS011;61549;37.044;22.128;2022-09-09T12:56:17;4.32;;;3.40;;
73321;SDS011;61549;37.044;22.128;2022-09-09T12:58:46;4.50;;;3.50;;
73321;SDS011;61549;37.044;22.128;2022-09-09T13:03:50;4.90;;;3.40;;
73321;SDS011;61549;37.044;22.128;2022-09-09T13:06:20;4.22;;;3.33;;
73321;SDS011;61549;37.044;22.128;2022-09-09T13:08:50;3.63;;;3.28;;
73321;SDS011;61549;37.044;22.128;2022-09-09T13:11:18;3.70;;;3.33;;
73321;SDS011;61549;37.044;22.128;2022-09-09T13:13:54;3.55;;;3.08;;
73321;SDS011;61549;37.044;22.128;2022-09-09T13:16:26;3.55;;;3.13;;
73321;SDS011;61549;37.044;22.128;2022-09-09T13:19:00;3.42;;;3.05;;
73321;SDS011;61549;37.044;22.128;2022-09-09T13:21:36;4.10;;;3.28;;
73321;SDS011;61549;37.044;22.128;2022-09-09T13:24:04;4.78;;;3.22;;
73321;SDS011;61549;37.044;22.128;2022-09-09T13:26:32;4.22;;;3.00;;
73321;SDS011;61549;37.044;22.128;2022-09-09T13:29:16;3.88;;;3.53;;
73321;SDS011;61549;37.044;22.128;2022-09-09T13:31:43;3.45;;;3.00;;
73321;SDS011;61549;37.044;22.128;2022-09-09T13:37:05;4.20;;;3.10;;
73321;SDS011;61549;37.044;22.128;2022-09-09T13:39:32;4.07;;;3.30;;
73321;SDS011;61549;37.044;22.128;2022-09-09T13:42:01;4.93;;;3.55;;
73321;SDS011;61549;37.044;22.128;2022-09-09T13:44:36;3.63;;;3.30;;
73321;SDS011;61549;37.044;22.128;2022-09-09T13:47:17;3.30;;;3.00;;
73321;SDS011;61549;37.044;22.128;2022-09-09T13:49:48;5.20;;;3.25;;
73321;SDS011;61549;37.044;22.128;2022-09-09T13:52:15;4.72;;;3.28;;
73321;SDS011;61549;37.044;22.128;2022-09-09T13:54:46;3.40;;;3.10;;
73321;SDS011;61549;37.044;22.128;2022-09-09T13:57:23;3.97;;;3.58;;
73321;SDS011;61549;37.044;22.128;2022-09-09T13:59:50;3.70;;;3.40;;
73321;SDS011;61549;37.044;22.128;2022-09-09T14:02:18;5.40;;;3.50;;
73321;SDS011;61549;37.044;22.128;2022-09-09T14:04:44;3.63;;;3.30;;
73321;SDS011;61549;37.044;22.128;2022-09-09T14:07:14;4.55;;;3.47;;
73321;SDS011;61549;37.044;22.128;2022-09-09T14:09:41;5.07;;;3.30;;
73321;SDS011;61549;37.044;22.128;2022-09-09T14:12:10;4.30;;;3.50;;
73321;SDS011;61549;37.044;22.128;2022-09-09T14:14:37;4.07;;;3.30;;
73321;SDS011;61549;37.044;22.128;2022-09-09T14:17:04;3.83;;;3.10;;
73321;SDS011;61549;37.044;22.128;2022-09-09T14:19:30;5.93;;;3.65;;
73321;SDS011;61549;37.044;22.128;2022-09-09T14:21:56;4.30;;;3.20;;
73321;SDS011;61549;37.044;22.128;2022-09-09T14:24:23;4.70;;;3.47;;
73321;SDS011;61549;37.044;22.128;2022-09-09T14:26:50;4.32;;;3.13;;
73321;SDS011;61549;37.044;22.128;2022-09-09T14:29:16;3.97;;;3.40;;
73321;SDS011;61549;37.044;22.128;2022-09-09T14:31:41;3.65;;;3.35;;
73321;SDS011;61549;37.044;22.128;2022-09-09T14:34:07;4.80;;;3.60;;
73321;SDS011;61549;37.044;22.128;2022-09-09T14:36:36;3.97;;;3.58;;
73321;SDS011;61549;37.044;22.128;2022-09-09T14:39:03;4.85;;;3.63;;
73321;SDS011;61549;37.044;22.128;2022-09-09T14:41:29;4.43;;;3.97;;
73321;SDS011;61549;37.044;22.128;2022-09-09T14:43:56;6.47;;;3.90;;
73321;SDS011;61549;37.044;22.128;2022-09-09T14:46:22;4.50;;;3.30;;
73321;SDS011;61549;37.044;22.128;2022-09-09T14:48:48;4.30;;;3.72;;
73321;SDS011;61549;37.044;22.128;2022-09-09T14:51:16;5.32;;;3.70;;
73321;SDS011;61549;37.044;22.128;2022-09-09T14:53:44;3.90;;;3.60;;
73321;SDS011;61549;37.044;22.128;2022-09-09T14:56:14;5.97;;;3.30;;
73321;SDS011;61549;37.044;22.128;2022-09-09T14:58:42;6.72;;;4.30;;
73321;SDS011;61549;37.044;22.128;2022-09-09T15:01:09;4.28;;;3.88;;
73321;SDS011;61549;37.044;22.128;2022-09-09T15:03:39;4.55;;;3.53;;
73321;SDS011;61549;37.044;22.128;2022-09-09T15:06:13;5.63;;;4.10;;
73321;SDS011;61549;37.044;22.128;2022-09-09T15:08:43;5.47;;;3.70;;
73321;SDS011;61549;37.044;22.128;2022-09-09T15:11:10;4.75;;;4.22;;
73321;SDS011;61549;37.044;22.128;2022-09-09T15:13:37;5.75;;;3.92;;
73321;SDS011;61549;37.044;22.128;2022-09-09T15:16:09;4.20;;;3.70;;
73321;SDS011;61549;37.044;22.128;2022-09-09T15:18:37;7.15;;;4.07;;
73321;SDS011;61549;37.044;22.128;2022-09-09T15:21:08;5.07;;;4.03;;
73321;SDS011;61549;37.044;22.128;2022-09-09T15:23:38;4.63;;;4.03;;
73321;SDS011;61549;37.044;22.128;2022-09-09T15:26:05;5.68;;;4.35;;
73321;SDS011;61549;37.044;22.128;2022-09-09T15:28:32;4.55;;;4.03;;
73321;SDS011;61549;37.044;22.128;2022-09-09T15:31:13;4.45;;;4.05;;
73321;SDS011;61549;37.044;22.128;2022-09-09T15:33:52;4.40;;;4.00;;
73321;SDS011;61549;37.044;22.128;2022-09-09T15:36:38;8.18;;;4.50;;
73321;SDS011;61549;37.044;22.128;2022-09-09T15:39:09;5.80;;;4.70;;
73321;SDS011;61549;37.044;22.128;2022-09-09T15:41:41;4.57;;;4.18;;
73321;SDS011;61549;37.044;22.128;2022-09-09T15:44:08;6.15;;;4.90;;
73321;SDS011;61549;37.044;22.128;2022-09-09T15:46:40;4.78;;;4.28;;
73321;SDS011;61549;37.044;22.128;2022-09-09T15:49:12;4.60;;;4.20;;
73321;SDS011;61549;37.044;22.128;2022-09-09T15:51:46;4.78;;;4.38;;
73321;SDS011;61549;37.044;22.128;2022-09-09T15:54:18;5.13;;;4.40;;
73321;SDS011;61549;37.044;22.128;2022-09-09T15:56:47;4.85;;;4.38;;
73321;SDS011;61549;37.044;22.128;2022-09-09T15:59:16;5.68;;;4.75;;
73321;SDS011;61549;37.044;22.128;2022-09-09T16:01:43;5.88;;;4.70;;
73321;SDS011;61549;37.044;22.128;2022-09-09T16:04:09;4.90;;;4.30;;
73321;SDS011;61549;37.044;22.128;2022-09-09T16:06:37;5.93;;;4.90;;
73321;SDS011;61549;37.044;22.128;2022-09-09T16:09:05;5.68;;;4.32;;
73321;SDS011;61549;37.044;22.128;2022-09-09T16:11:33;6.82;;;4.50;;
73321;SDS011;61549;37.044;22.128;2022-09-09T16:14:05;5.05;;;4.55;;
73321;SDS011;61549;37.044;22.128;2022-09-09T16:16:31;5.70;;;4.93;;
73321;SDS011;61549;37.044;22.128;2022-09-09T16:19:00;6.97;;;4.78;;
73321;SDS011;61549;37.044;22.128;2022-09-09T16:21:33;4.75;;;4.35;;
73321;SDS011;61549;37.044;22.128;2022-09-09T16:24:01;5.50;;;5.00;;
73321;SDS011;61549;37.044;22.128;2022-09-09T16:26:29;5.28;;;4.72;;
73321;SDS011;61549;37.044;22.128;2022-09-09T16:28:56;5.82;;;5.28;;
73321;SDS011;61549;37.044;22.128;2022-09-09T16:31:25;6.13;;;5.28;;
73321;SDS011;61549;37.044;22.128;2022-09-09T16:33:52;7.10;;;5.50;;
73321;SDS011;61549;37.044;22.128;2022-09-09T16:36:21;6.15;;;5.10;;
73321;SDS011;61549;37.044;22.128;2022-09-09T16:38:52;5.28;;;4.78;;
73321;SDS011;61549;37.044;22.128;2022-09-09T16:41:20;6.75;;;5.78;;
73321;SDS011;61549;37.044;22.128;2022-09-09T16:43:46;10.13;;;5.43;;
73321;SDS011;61549;37.044;22.128;2022-09-09T16:46:12;7.28;;;5.93;;
73321;SDS011;61549;37.044;22.128;2022-09-09T16:48:42;6.45;;;5.80;;
73321;SDS011;61549;37.044;22.128;2022-09-09T16:51:15;7.30;;;5.70;;
73321;SDS011;61549;37.044;22.128;2022-09-09T16:53:49;9.15;;;5.93;;
73321;SDS011;61549;37.044;22.128;2022-09-09T16:56:18;7.80;;;5.90;;
73321;SDS011;61549;37.044;22.128;2022-09-09T16:58:55;7.72;;;6.25;;
73321;SDS011;61549;37.044;22.128;2022-09-09T17:01:22;7.95;;;6.07;;
73321;SDS011;61549;37.044;22.128;2022-09-09T17:03:56;8.15;;;6.40;;
73321;SDS011;61549;37.044;22.128;2022-09-09T17:06:23;8.00;;;6.68;;
73321;SDS011;61549;37.044;22.128;2022-09-09T17:08:54;8.07;;;6.28;;